createdAt,value
2018-06-27T00:02:36.175Z,91.20
2018-06-27T00:05:04.949Z,91.00
2018-06-27T00:07:33.710Z,91.00
2018-06-27T00:12:31.157Z,90.90
2018-06-27T00:14:59.417Z,91.10
2018-06-27T00:17:27.813Z,91.10
2018-06-27T00:19:56.061Z,91.30
2018-06-27T00:22:24.225Z,91.90
2018-06-27T00:24:52.425Z,91.70
2018-06-27T00:27:20.674Z,91.80
2018-06-27T00:29:48.915Z,92.00
2018-06-27T00:32:17.767Z,92.00
2018-06-27T00:34:46.021Z,92.10
2018-06-27T00:37:14.219Z,92.20
2018-06-27T00:39:43.075Z,92.30
2018-06-27T00:42:11.291Z,92.30
2018-06-27T00:44:39.439Z,92.40
2018-06-27T00:49:35.550Z,92.50
2018-06-27T00:52:03.721Z,92.50
2018-06-27T00:54:31.946Z,92.60
2018-06-27T00:57:00.323Z,92.70
2018-06-27T01:04:25.761Z,92.80
2018-06-27T01:06:53.983Z,92.90
2018-06-27T01:09:22.993Z,93.20
2018-06-27T01:11:52.521Z,92.90
2018-06-27T01:14:20.707Z,92.90
2018-06-27T01:16:49.393Z,92.90
2018-06-27T01:19:17.551Z,92.80
2018-06-27T01:21:45.780Z,92.90
2018-06-27T01:24:14.647Z,92.90
2018-06-27T01:26:42.867Z,93.00
2018-06-27T01:29:11.094Z,92.80
2018-06-27T01:31:39.229Z,92.80
2018-06-27T01:34:07.370Z,92.80
2018-06-27T01:36:35.541Z,92.90
2018-06-27T01:39:05.779Z,92.80
2018-06-27T01:41:33.931Z,92.70
2018-06-27T01:44:02.151Z,92.70
2018-06-27T01:46:30.423Z,92.60
2018-06-27T01:48:58.621Z,92.60
2018-06-27T01:53:54.801Z,92.50
2018-06-27T01:56:22.941Z,92.50
2018-06-27T01:58:51.112Z,92.50
2018-06-27T02:01:19.285Z,92.80
2018-06-27T02:03:47.971Z,92.60
2018-06-27T02:06:16.185Z,92.70
2018-06-27T02:08:44.286Z,92.80
2018-06-27T02:11:12.460Z,92.80
2018-06-27T02:13:40.571Z,92.80
2018-06-27T02:16:08.714Z,92.90
2018-06-27T02:18:36.880Z,93.00
2018-06-27T02:21:05.043Z,93.10
2018-06-27T02:23:33.189Z,93.20
2018-06-27T02:26:01.365Z,93.30
2018-06-27T02:28:30.056Z,93.30
2018-06-27T02:30:58.198Z,93.30
2018-06-27T02:33:28.722Z,93.30
2018-06-27T02:35:57.406Z,93.30
2018-06-27T02:38:25.882Z,93.40
2018-06-27T02:40:54.074Z,93.50
2018-06-27T02:43:22.551Z,93.50
2018-06-27T02:45:52.124Z,93.40
2018-06-27T02:48:20.291Z,93.50
2018-06-27T02:50:48.493Z,93.40
2018-06-27T02:53:16.638Z,93.40
2018-06-27T02:55:44.786Z,93.40
2018-06-27T02:58:13.635Z,93.40
2018-06-27T03:03:09.875Z,93.40
2018-06-27T03:05:38.220Z,93.30
2018-06-27T03:08:06.499Z,93.30
2018-06-27T03:10:34.639Z,93.30
2018-06-27T03:13:02.909Z,93.30
2018-06-27T03:15:31.166Z,93.30
2018-06-27T03:18:01.460Z,93.30
2018-06-27T03:20:29.655Z,93.30
2018-06-27T03:22:57.885Z,93.30
2018-06-27T03:27:54.456Z,93.20
2018-06-27T03:30:22.620Z,93.20
2018-06-27T03:32:50.778Z,93.30
2018-06-27T03:35:19.752Z,93.20
2018-06-27T03:37:47.870Z,92.90
2018-06-27T03:40:16.076Z,92.90
2018-06-27T03:42:44.267Z,93.20
2018-06-27T03:45:13.069Z,92.80
2018-06-27T03:47:41.376Z,92.70
2018-06-27T03:50:09.508Z,92.80
2018-06-27T03:52:43.749Z,92.70
2018-06-27T03:55:11.874Z,92.60
2018-06-27T03:57:40.151Z,92.60
2018-06-27T04:00:08.507Z,92.50
2018-06-27T04:02:36.641Z,92.40
2018-06-27T04:05:05.108Z,92.10
2018-06-27T04:07:33.294Z,92.00
2018-06-27T04:10:01.811Z,92.20
2018-06-27T04:12:31.157Z,91.90
2018-06-27T04:14:59.240Z,91.70
2018-06-27T04:17:27.462Z,91.50
2018-06-27T04:22:33.446Z,91.20
2018-06-27T04:25:02.041Z,91.20
2018-06-27T04:27:32.159Z,91.10
2018-06-27T04:30:01.587Z,91.00
2018-06-27T04:32:29.742Z,90.70
2018-06-27T04:34:58.944Z,90.60
2018-06-27T04:37:28.223Z,90.50
2018-06-27T04:39:56.649Z,90.40
2018-06-27T04:42:24.783Z,90.20
2018-06-27T04:47:20.965Z,90.00
2018-06-27T04:49:49.264Z,89.70
2018-06-27T04:52:17.479Z,89.50
2018-06-27T04:54:45.871Z,87.60
2018-06-27T04:57:14.094Z,82.50
2018-06-27T04:59:42.247Z,77.40
2018-06-27T05:02:10.789Z,73.30
2018-06-27T05:04:38.965Z,70.00
2018-06-27T05:07:07.209Z,67.70
2018-06-27T05:09:35.369Z,64.10
2018-06-27T05:12:03.521Z,62.40
2018-06-27T05:14:31.694Z,59.60
2018-06-27T05:16:59.861Z,57.40
2018-06-27T05:19:27.976Z,56.50
2018-06-27T05:21:57.469Z,57.30
2018-06-27T05:24:26.229Z,57.80
2018-06-27T05:26:54.514Z,57.70
2018-06-27T05:29:22.841Z,57.10
2018-06-27T05:31:51.114Z,55.60
2018-06-27T05:34:19.250Z,54.70
2018-06-27T05:36:47.556Z,53.90
2018-06-27T05:39:16.289Z,53.40
2018-06-27T05:41:45.383Z,53.60
2018-06-27T05:44:13.673Z,53.50
2018-06-27T05:46:41.816Z,52.90
2018-06-27T05:49:10.005Z,52.40
2018-06-27T05:51:38.220Z,53.10
2018-06-27T05:54:06.359Z,52.70
2018-06-27T05:56:34.497Z,52.50
2018-06-27T05:59:02.685Z,52.40
2018-06-27T06:01:32.559Z,51.60
2018-06-27T06:04:00.717Z,51.00
2018-06-27T06:11:25.518Z,50.10
2018-06-27T06:13:53.684Z,50.00
2018-06-27T06:16:21.814Z,50.30
2018-06-27T06:18:49.971Z,50.70
2018-06-27T06:23:46.085Z,51.20
2018-06-27T06:26:14.250Z,51.50
2018-06-27T06:28:43.004Z,51.30
2018-06-27T06:31:11.250Z,50.80
2018-06-27T06:33:39.557Z,51.10
2018-06-27T06:38:35.683Z,52.10
2018-06-27T06:41:03.957Z,52.10
2018-06-27T06:43:32.150Z,51.20
2018-06-27T06:46:00.901Z,51.60
2018-06-27T06:48:30.960Z,51.90
2018-06-27T06:51:00.324Z,52.50
2018-06-27T06:53:28.669Z,53.40
2018-06-27T06:58:27.524Z,53.60
2018-06-27T07:00:55.682Z,53.10
2018-06-27T07:03:23.959Z,53.10
2018-06-27T07:05:52.144Z,52.90
2018-06-27T07:10:48.292Z,52.90
2018-06-27T07:13:16.946Z,53.10
2018-06-27T07:15:45.142Z,52.80
2018-06-27T07:20:42.527Z,52.50
2018-06-27T07:23:10.824Z,52.30
2018-06-27T07:25:39.126Z,51.90
2018-06-27T07:28:07.326Z,53.10
2018-06-27T07:30:36.926Z,53.40
2018-06-27T07:33:05.320Z,54.20
2018-06-27T07:35:33.597Z,55.40
2018-06-27T07:38:01.810Z,56.70
2018-06-27T07:40:29.988Z,56.20
2018-06-27T07:42:58.286Z,56.30
2018-06-27T07:47:55.039Z,55.60
2018-06-27T07:50:35.287Z,55.80
2018-06-27T07:53:03.480Z,55.20
2018-06-27T07:55:31.689Z,54.60
2018-06-27T07:58:00.282Z,53.20
2018-06-27T08:00:28.437Z,52.60
2018-06-27T08:02:56.575Z,53.20
2018-06-27T08:05:25.459Z,54.30
2018-06-27T08:07:53.643Z,54.80
2018-06-27T08:10:21.943Z,54.70
2018-06-27T08:12:50.221Z,55.60
2018-06-27T08:15:18.551Z,55.70
2018-06-27T08:17:46.789Z,55.50
2018-06-27T08:20:15.217Z,55.40
2018-06-27T08:22:43.359Z,55.30
2018-06-27T08:25:11.551Z,55.50
2018-06-27T08:27:39.904Z,55.70
2018-06-27T08:30:08.160Z,55.80
2018-06-27T08:32:36.410Z,55.90
2018-06-27T08:35:04.910Z,55.60
2018-06-27T08:37:33.093Z,55.30
2018-06-27T08:40:01.370Z,54.40
2018-06-27T08:42:31.155Z,54.70
2018-06-27T08:44:59.311Z,55.30
2018-06-27T08:47:28.717Z,54.90
2018-06-27T08:49:56.940Z,54.60
2018-06-27T08:52:25.049Z,55.10
2018-06-27T08:54:53.711Z,54.50
2018-06-27T08:57:21.859Z,55.00
2018-06-27T08:59:50.170Z,55.10
2018-06-27T09:02:18.365Z,55.20
2018-06-27T09:04:46.576Z,55.30
2018-06-27T09:07:15.508Z,54.90
2018-06-27T09:09:43.690Z,54.30
2018-06-27T09:12:16.889Z,54.30
2018-06-27T09:14:45.234Z,52.80
2018-06-27T09:17:15.529Z,53.10
2018-06-27T09:19:43.784Z,53.20
2018-06-27T09:22:13.516Z,53.70
2018-06-27T09:24:42.134Z,53.90
2018-06-27T09:27:10.918Z,54.00
2018-06-27T09:29:39.182Z,53.20
2018-06-27T09:32:08.064Z,53.00
2018-06-27T09:34:36.622Z,53.00
2018-06-27T09:37:07.096Z,53.00
2018-06-27T09:39:36.114Z,53.30
2018-06-27T09:44:32.388Z,52.50
2018-06-27T09:47:00.766Z,52.60
2018-06-27T09:49:29.004Z,52.00
2018-06-27T09:51:57.149Z,52.10
2018-06-27T09:54:26.888Z,52.60
2018-06-27T09:56:55.362Z,51.90
2018-06-27T09:59:23.908Z,51.00
2018-06-27T10:01:52.187Z,50.50
2018-06-27T10:06:48.250Z,49.50
2018-06-27T10:11:44.288Z,49.20
2018-06-27T10:14:12.443Z,48.40
2018-06-27T10:16:40.571Z,49.60
2018-06-27T10:21:36.885Z,50.40
2018-06-27T10:24:05.280Z,50.70
2018-06-27T10:26:33.576Z,50.70
2018-06-27T10:29:03.962Z,48.70
2018-06-27T10:31:32.209Z,47.40
2018-06-27T10:34:00.391Z,46.30
2018-06-27T10:36:28.611Z,45.70
2018-06-27T10:38:56.904Z,46.20
2018-06-27T10:41:25.709Z,46.40
2018-06-27T10:46:21.796Z,47.10
2018-06-27T10:48:49.976Z,47.80
2018-06-27T10:51:18.382Z,47.70
2018-06-27T10:53:46.870Z,48.60
2018-06-27T10:56:15.004Z,48.00
2018-06-27T11:01:11.127Z,47.50
2018-06-27T11:06:08.776Z,47.00
2018-06-27T11:08:36.908Z,47.30
2018-06-27T11:11:06.166Z,47.70
2018-06-27T11:13:34.506Z,47.80
2018-06-27T11:16:02.894Z,47.30
2018-06-27T11:18:31.586Z,47.70
2018-06-27T11:20:59.755Z,46.20
2018-06-27T11:23:28.059Z,46.50
2018-06-27T11:25:56.287Z,46.10
2018-06-27T11:28:24.457Z,45.30
2018-06-27T11:30:52.710Z,45.10
2018-06-27T11:33:20.965Z,45.10
2018-06-27T11:35:49.099Z,45.30
2018-06-27T11:38:17.313Z,45.40
2018-06-27T11:40:45.473Z,46.00
2018-06-27T11:43:13.620Z,46.40
2018-06-27T11:45:41.879Z,46.40
2018-06-27T11:48:10.069Z,46.60
2018-06-27T11:50:38.359Z,47.00
2018-06-27T11:53:06.573Z,47.00
2018-06-27T11:55:34.873Z,46.00
2018-06-27T11:58:03.031Z,46.60
2018-06-27T12:00:32.758Z,45.00
2018-06-27T12:03:01.007Z,45.30
2018-06-27T12:05:29.132Z,42.00
2018-06-27T12:07:59.376Z,41.70
2018-06-27T12:10:28.465Z,41.30
2018-06-27T12:12:57.633Z,41.60
2018-06-27T12:15:25.845Z,42.20
2018-06-27T12:17:54.887Z,42.40
2018-06-27T12:20:23.127Z,41.90
2018-06-27T12:22:51.911Z,42.70
2018-06-27T12:25:20.043Z,43.20
2018-06-27T12:27:48.267Z,43.50
2018-06-27T12:30:21.277Z,42.80
2018-06-27T12:32:50.433Z,41.90
2018-06-27T12:35:19.585Z,40.90
2018-06-27T12:37:48.559Z,41.50
2018-06-27T12:40:18.267Z,41.50
2018-06-27T12:42:47.336Z,40.40
2018-06-27T12:45:15.536Z,40.70
2018-06-27T12:47:43.856Z,41.00
2018-06-27T12:50:12.990Z,40.60
2018-06-27T12:52:41.373Z,40.20
2018-06-27T12:57:39.803Z,39.60
2018-06-27T13:00:09.349Z,39.60
2018-06-27T13:02:37.499Z,40.00
2018-06-27T13:05:06.981Z,40.20
2018-06-27T13:07:35.142Z,39.50
2018-06-27T13:10:03.434Z,39.10
2018-06-27T13:12:33.760Z,39.20
2018-06-27T13:15:02.724Z,39.30
2018-06-27T13:17:30.980Z,39.20
2018-06-27T13:20:00.368Z,39.10
2018-06-27T13:22:28.893Z,39.00
2018-06-27T13:24:57.370Z,39.50
2018-06-27T13:27:26.533Z,39.80
2018-06-27T13:29:54.734Z,39.90
2018-06-27T13:32:23.090Z,40.60
2018-06-27T13:34:53.466Z,40.80
2018-06-27T13:37:21.595Z,41.10
2018-06-27T13:39:49.761Z,41.20
2018-06-27T13:42:19.376Z,40.40
2018-06-27T13:44:47.575Z,40.00
2018-06-27T13:47:16.257Z,39.40
2018-06-27T13:49:44.393Z,38.90
2018-06-27T13:52:12.691Z,38.50
2018-06-27T13:54:43.276Z,37.60
2018-06-27T13:57:12.784Z,38.10
2018-06-27T13:59:41.230Z,37.70
2018-06-27T14:02:09.454Z,38.10
2018-06-27T14:04:37.815Z,39.20
2018-06-27T14:07:06.966Z,39.60
2018-06-27T14:09:36.342Z,39.60
2018-06-27T14:12:05.675Z,39.70
2018-06-27T14:14:33.882Z,40.40
2018-06-27T14:17:02.278Z,40.50
2018-06-27T14:19:30.701Z,40.80
2018-06-27T14:21:59.825Z,40.70
2018-06-27T14:24:28.086Z,40.60
2018-06-27T14:26:57.758Z,40.80
2018-06-27T14:29:25.984Z,40.70
2018-06-27T14:34:22.448Z,40.40
2018-06-27T14:36:50.752Z,40.40
2018-06-27T14:39:19.826Z,40.40
2018-06-27T14:41:48.448Z,40.10
2018-06-27T14:44:16.794Z,40.00
2018-06-27T14:46:45.288Z,39.70
2018-06-27T14:49:14.689Z,39.70
2018-06-27T14:51:43.344Z,39.80
2018-06-27T14:54:12.341Z,39.80
2018-06-27T14:56:41.729Z,40.00
2018-06-27T14:59:09.907Z,39.90
2018-06-27T15:01:40.370Z,39.90
2018-06-27T15:04:10.086Z,40.00
2018-06-27T15:06:39.907Z,40.50
2018-06-27T15:09:10.790Z,40.00
2018-06-27T15:11:39.490Z,40.40
2018-06-27T15:16:37.124Z,40.90
2018-06-27T15:19:05.615Z,40.80
2018-06-27T15:21:33.789Z,40.30
2018-06-27T15:24:04.458Z,40.30
2018-06-27T15:26:33.129Z,40.80
2018-06-27T15:29:01.350Z,41.00
2018-06-27T15:33:58.809Z,41.50
2018-06-27T15:36:27.634Z,41.40
2018-06-27T15:38:55.835Z,41.60
2018-06-27T15:41:24.156Z,40.90
2018-06-27T15:43:52.306Z,40.00
2018-06-27T15:46:20.493Z,39.80
2018-06-27T15:48:48.738Z,39.80
2018-06-27T15:51:16.885Z,40.20
2018-06-27T15:53:45.753Z,39.50
2018-06-27T15:56:16.153Z,39.90
2018-06-27T15:58:44.302Z,40.50
2018-06-27T16:01:12.451Z,41.30
2018-06-27T16:03:42.137Z,41.80
2018-06-27T16:06:10.339Z,42.00
2018-06-27T16:08:38.474Z,41.50
2018-06-27T16:11:06.662Z,41.80
2018-06-27T16:13:35.017Z,41.90
2018-06-27T16:16:03.203Z,41.20
2018-06-27T16:18:31.370Z,41.20
2018-06-27T16:20:59.590Z,40.90
2018-06-27T16:25:56.155Z,41.70
2018-06-27T16:30:52.603Z,41.20
2018-06-27T16:33:20.758Z,41.70
2018-06-27T16:38:16.923Z,41.40
2018-06-27T16:40:45.077Z,41.70
2018-06-27T16:43:13.914Z,41.50
2018-06-27T16:45:44.220Z,41.30
2018-06-27T16:48:12.722Z,41.10
2018-06-27T16:50:40.960Z,40.00
2018-06-27T16:53:09.224Z,40.30
2018-06-27T16:55:37.431Z,40.50
2018-06-27T16:58:06.675Z,40.50
2018-06-27T17:00:35.584Z,40.30
2018-06-27T17:03:03.727Z,40.50
2018-06-27T17:05:32.005Z,40.90
2018-06-27T17:08:00.234Z,40.90
2018-06-27T17:10:28.548Z,40.70
2018-06-27T17:12:56.718Z,40.80
2018-06-27T17:15:25.003Z,41.10
2018-06-27T17:17:53.193Z,41.30
2018-06-27T17:20:21.523Z,41.40
2018-06-27T17:22:50.225Z,41.50
2018-06-27T17:25:18.441Z,40.90
2018-06-27T17:27:46.591Z,41.10
2018-06-27T17:30:14.735Z,41.60
2018-06-27T17:32:42.877Z,42.00
2018-06-27T17:37:39.113Z,42.10
2018-06-27T17:42:36.493Z,42.00
2018-06-27T17:45:05.055Z,41.80
2018-06-27T17:47:33.256Z,41.70
2018-06-27T17:52:30.454Z,42.10
2018-06-27T17:54:58.722Z,42.50
2018-06-27T17:57:27.018Z,42.60
2018-06-27T17:59:55.158Z,42.80
2018-06-27T18:02:23.372Z,43.20
2018-06-27T18:04:51.678Z,43.20
2018-06-27T18:07:19.906Z,43.40
2018-06-27T18:09:48.185Z,43.70
2018-06-27T18:12:16.430Z,44.00
2018-06-27T18:14:44.638Z,44.10
2018-06-27T18:17:12.842Z,44.20
2018-06-27T18:19:41.779Z,44.40
2018-06-27T18:22:10.011Z,44.30
2018-06-27T18:24:38.239Z,44.30
2018-06-27T18:27:06.516Z,44.20
2018-06-27T18:29:34.678Z,44.30
2018-06-27T18:32:02.844Z,44.30
2018-06-27T18:34:30.982Z,44.40
2018-06-27T18:36:59.180Z,44.60
2018-06-27T18:39:27.504Z,44.60
2018-06-27T18:41:55.684Z,44.90
2018-06-27T18:44:24.758Z,45.30
2018-06-27T18:49:21.130Z,46.00
2018-06-27T18:51:49.355Z,45.90
2018-06-27T18:54:17.536Z,46.10
2018-06-27T18:56:45.814Z,46.30
2018-06-27T18:59:13.997Z,46.50
2018-06-27T19:01:42.318Z,46.70
2018-06-27T19:04:10.547Z,47.00
2018-06-27T19:06:38.822Z,47.00
2018-06-27T19:09:09.356Z,47.30
2018-06-27T19:11:37.592Z,47.60
2018-06-27T19:14:05.800Z,47.90
2018-06-27T19:16:34.077Z,48.10
2018-06-27T19:19:02.427Z,48.30
2018-06-27T19:21:30.632Z,48.40
2018-06-27T19:23:58.880Z,48.80
2018-06-27T19:26:27.109Z,49.10
2018-06-27T19:28:55.617Z,49.40
2018-06-27T19:31:23.802Z,49.60
2018-06-27T19:33:52.151Z,50.00
2018-06-27T19:36:20.457Z,50.30
2018-06-27T19:38:48.806Z,51.20
2018-06-27T19:41:17.022Z,52.80
2018-06-27T19:43:45.258Z,53.80
2018-06-27T19:46:13.490Z,55.30
2018-06-27T19:48:41.825Z,57.50
2018-06-27T19:51:10.028Z,58.50
2018-06-27T19:53:38.942Z,60.50
2018-06-27T19:56:07.294Z,61.50
2018-06-27T19:58:35.567Z,63.00
2018-06-27T20:01:04.422Z,64.40
2018-06-27T20:03:32.718Z,64.90
2018-06-27T20:06:00.876Z,65.50
2018-06-27T20:08:30.031Z,66.20
2018-06-27T20:10:58.450Z,67.10
2018-06-27T20:13:26.625Z,68.10
2018-06-27T20:15:54.872Z,68.50
2018-06-27T20:18:23.053Z,69.10
2018-06-27T20:20:51.665Z,69.50
2018-06-27T20:23:20.253Z,70.60
2018-06-27T20:25:48.651Z,71.50
2018-06-27T20:30:44.838Z,72.70
2018-06-27T20:33:12.993Z,73.10
2018-06-27T20:35:41.292Z,73.50
2018-06-27T20:38:09.487Z,74.30
2018-06-27T20:40:37.664Z,74.60
2018-06-27T20:43:06.422Z,75.10
2018-06-27T20:45:34.743Z,75.60
2018-06-27T20:48:02.961Z,75.90
2018-06-27T20:50:31.242Z,76.30
2018-06-27T20:52:59.437Z,76.60
2018-06-27T20:55:28.442Z,77.10
2018-06-27T20:57:56.703Z,77.30
2018-06-27T21:00:24.934Z,77.60
2018-06-27T21:02:53.435Z,77.80
2018-06-27T21:05:21.727Z,77.90
2018-06-27T21:07:51.008Z,78.40
2018-06-27T21:10:19.211Z,78.50
2018-06-27T21:12:47.373Z,78.80
2018-06-27T21:15:16.422Z,79.00
2018-06-27T21:20:12.549Z,79.40
2018-06-27T21:22:40.785Z,79.60
2018-06-27T21:25:09.170Z,79.80
2018-06-27T21:27:37.295Z,80.00
2018-06-27T21:30:06.500Z,80.10
2018-06-27T21:32:35.326Z,80.30
2018-06-27T21:35:03.474Z,80.50
2018-06-27T21:37:31.887Z,80.80
2018-06-27T21:40:00.968Z,81.00
2018-06-27T21:45:00.038Z,81.60
2018-06-27T21:47:29.149Z,81.30
2018-06-27T21:49:57.499Z,81.40
2018-06-27T21:52:25.703Z,81.70
2018-06-27T21:54:54.266Z,81.80
2018-06-27T21:57:22.626Z,81.90
2018-06-27T21:59:50.869Z,81.80
2018-06-27T22:02:19.244Z,82.00
2018-06-27T22:04:48.276Z,82.00
2018-06-27T22:07:17.099Z,82.10
2018-06-27T22:09:45.750Z,82.20
2018-06-27T22:12:13.987Z,82.10
2018-06-27T22:14:42.181Z,82.40
2018-06-27T22:17:10.483Z,82.50
2018-06-27T22:19:38.661Z,82.50
2018-06-27T22:22:09.298Z,82.60
2018-06-27T22:24:38.175Z,82.60
2018-06-27T22:27:06.471Z,82.70
2018-06-27T22:29:34.999Z,82.70
2018-06-27T22:32:04.411Z,82.70
2018-06-27T22:34:32.796Z,82.60
2018-06-27T22:37:02.148Z,82.70
2018-06-27T22:39:31.005Z,82.80
2018-06-27T22:41:59.199Z,82.80
2018-06-27T22:44:27.811Z,83.00
2018-06-27T22:46:56.330Z,83.00
2018-06-27T22:51:53.803Z,83.10
2018-06-27T22:54:21.973Z,83.20
2018-06-27T22:56:50.321Z,83.10
2018-06-27T23:01:46.553Z,83.60
2018-06-27T23:04:14.692Z,82.80
2018-06-27T23:06:42.869Z,82.90
2018-06-27T23:09:11.453Z,82.90
2018-06-27T23:11:39.818Z,82.90
2018-06-27T23:14:08.194Z,83.00
2018-06-27T23:16:36.388Z,82.90
2018-06-27T23:19:04.760Z,83.30
2018-06-27T23:21:32.979Z,82.70
2018-06-27T23:24:01.111Z,82.80
2018-06-27T23:26:29.423Z,83.00
2018-06-27T23:28:57.552Z,83.10
2018-06-27T23:31:25.772Z,83.20
2018-06-27T23:33:53.910Z,83.40
2018-06-27T23:36:22.254Z,84.10
2018-06-27T23:38:50.398Z,83.60
2018-06-27T23:41:18.847Z,83.70
2018-06-27T23:43:46.980Z,83.90
2018-06-27T23:46:15.227Z,84.00
2018-06-27T23:48:43.737Z,84.20
2018-06-27T23:51:11.888Z,84.60
2018-06-27T23:53:40.018Z,84.60
2018-06-27T23:56:08.175Z,84.80
2018-06-27T23:58:36.548Z,85.10
